sensor_id;sensor_type;location;lat;lon;timestamp;temperature;humidity
7360;DHT22;3720;48.274;7.796;2024-03-06T00:01:20;7.20;99.90
7360;DHT22;3720;48.274;7.796;2024-03-06T00:03:53;7.20;99.90
7360;DHT22;3720;48.274;7.796;2024-03-06T00:06:25;7.20;99.90
7360;DHT22;3720;48.274;7.796;2024-03-06T00:08:57;7.20;99.90
7360;DHT22;3720;48.274;7.796;2024-03-06T00:11:29;7.20;99.90
7360;DHT22;3720;48.274;7.796;2024-03-06T00:14:01;7.20;99.90
7360;DHT22;3720;48.274;7.796;2024-03-06T00:16:33;7.20;99.90
7360;DHT22;3720;48.274;7.796;2024-03-06T00:19:07;7.20;99.90
7360;DHT22;3720;48.274;7.796;2024-03-06T00:21:38;7.20;99.90
7360;DHT22;3720;48.274;7.796;2024-03-06T00:24:11;7.30;99.90
7360;DHT22;3720;48.274;7.796;2024-03-06T00:26:44;7.30;99.90
7360;DHT22;3720;48.274;7.796;2024-03-06T00:29:17;7.30;99.90
7360;DHT22;3720;48.274;7.796;2024-03-06T00:31:49;7.30;99.90
7360;DHT22;3720;48.274;7.796;2024-03-06T00:34:22;7.30;99.90
7360;DHT22;3720;48.274;7.796;2024-03-06T00:36:54;7.30;99.90
7360;DHT22;3720;48.274;7.796;2024-03-06T00:39:26;7.30;99.90
7360;DHT22;3720;48.274;7.796;2024-03-06T00:41:58;7.30;99.90
7360;DHT22;3720;48.274;7.796;2024-03-06T00:44:29;7.30;99.90
7360;DHT22;3720;48.274;7.796;2024-03-06T00:47:01;7.30;99.90
7360;DHT22;3720;48.274;7.796;2024-03-06T00:49:35;7.30;99.90
7360;DHT22;3720;48.274;7.796;2024-03-06T00:52:06;7.40;99.90
7360;DHT22;3720;48.274;7.796;2024-03-06T00:54:39;7.40;99.90
7360;DHT22;3720;48.274;7.796;2024-03-06T00:57:11;7.30;99.90
7360;DHT22;3720;48.274;7.796;2024-03-06T00:59:43;7.30;99.90
7360;DHT22;3720;48.274;7.796;2024-03-06T01:02:15;7.30;99.90
7360;DHT22;3720;48.274;7.796;2024-03-06T01:04:48;7.40;99.90
7360;DHT22;3720;48.274;7.796;2024-03-06T01:07:20;7.40;99.90
7360;DHT22;3720;48.274;7.796;2024-03-06T01:09:52;7.30;99.90
7360;DHT22;3720;48.274;7.796;2024-03-06T01:12:23;7.30;99.90
7360;DHT22;3720;48.274;7.796;2024-03-06T01:14:56;7.30;99.90
7360;DHT22;3720;48.274;7.796;2024-03-06T01:17:27;7.30;99.90
7360;DHT22;3720;48.274;7.796;2024-03-06T01:20:01;7.20;99.90
7360;DHT22;3720;48.274;7.796;2024-03-06T01:22:34;7.20;99.90
7360;DHT22;3720;48.274;7.796;2024-03-06T01:25:07;7.20;99.90
7360;DHT22;3720;48.274;7.796;2024-03-06T01:27:39;7.30;99.90
7360;DHT22;3720;48.274;7.796;2024-03-06T01:30:11;7.40;99.90
7360;DHT22;3720;48.274;7.796;2024-03-06T01:32:42;7.40;99.90
7360;DHT22;3720;48.274;7.796;2024-03-06T01:35:16;7.40;99.90
7360;DHT22;3720;48.274;7.796;2024-03-06T01:37:48;7.40;99.90
7360;DHT22;3720;48.274;7.796;2024-03-06T01:40:20;7.30;99.90
7360;DHT22;3720;48.274;7.796;2024-03-06T01:42:51;7.30;99.90
7360;DHT22;3720;48.274;7.796;2024-03-06T01:45:23;7.30;99.90
7360;DHT22;3720;48.274;7.796;2024-03-06T01:47:55;7.20;99.90
7360;DHT22;3720;48.274;7.796;2024-03-06T01:50:28;7.10;99.90
7360;DHT22;3720;48.274;7.796;2024-03-06T01:53:00;7.10;99.90
7360;DHT22;3720;48.274;7.796;2024-03-06T01:55:32;7.20;99.90
7360;DHT22;3720;48.274;7.796;2024-03-06T01:58:04;7.20;99.90
7360;DHT22;3720;48.274;7.796;2024-03-06T02:00:37;7.20;99.90
7360;DHT22;3720;48.274;7.796;2024-03-06T02:03:10;7.20;99.90
7360;DHT22;3720;48.274;7.796;2024-03-06T02:05:44;7.20;99.90
7360;DHT22;3720;48.274;7.796;2024-03-06T02:08:16;7.20;99.90
7360;DHT22;3720;48.274;7.796;2024-03-06T02:10:48;7.20;99.90
7360;DHT22;3720;48.274;7.796;2024-03-06T02:13:19;7.20;99.90
7360;DHT22;3720;48.274;7.796;2024-03-06T02:15:51;7.10;99.90
7360;DHT22;3720;48.274;7.796;2024-03-06T02:18:23;7.10;99.90
7360;DHT22;3720;48.274;7.796;2024-03-06T02:20:56;7.10;99.90
7360;DHT22;3720;48.274;7.796;2024-03-06T02:23:28;7.00;99.90
7360;DHT22;3720;48.274;7.796;2024-03-06T02:26:00;7.10;99.90
7360;DHT22;3720;48.274;7.796;2024-03-06T02:28:33;7.10;99.90
7360;DHT22;3720;48.274;7.796;2024-03-06T02:31:05;7.10;99.90
7360;DHT22;3720;48.274;7.796;2024-03-06T02:33:37;7.10;99.90
7360;DHT22;3720;48.274;7.796;2024-03-06T02:36:10;7.10;99.90
7360;DHT22;3720;48.274;7.796;2024-03-06T02:38:42;7.10;99.90
7360;DHT22;3720;48.274;7.796;2024-03-06T02:41:14;7.20;99.90
7360;DHT22;3720;48.274;7.796;2024-03-06T02:43:46;7.20;99.90
7360;DHT22;3720;48.274;7.796;2024-03-06T02:46:18;7.10;99.90
7360;DHT22;3720;48.274;7.796;2024-03-06T02:48:49;7.10;99.90
7360;DHT22;3720;48.274;7.796;2024-03-06T02:51:23;7.10;99.90
7360;DHT22;3720;48.274;7.796;2024-03-06T02:53:54;7.00;99.90
7360;DHT22;3720;48.274;7.796;2024-03-06T02:56:26;7.10;99.90
7360;DHT22;3720;48.274;7.796;2024-03-06T02:58:58;7.00;99.90
7360;DHT22;3720;48.274;7.796;2024-03-06T03:01:33;7.00;99.90
7360;DHT22;3720;48.274;7.796;2024-03-06T03:04:05;7.00;99.90
7360;DHT22;3720;48.274;7.796;2024-03-06T03:06:39;7.00;99.90
7360;DHT22;3720;48.274;7.796;2024-03-06T03:09:11;7.10;99.90
7360;DHT22;3720;48.274;7.796;2024-03-06T03:11:43;7.10;99.90
7360;DHT22;3720;48.274;7.796;2024-03-06T03:14:15;7.10;99.90
7360;DHT22;3720;48.274;7.796;2024-03-06T03:16:47;7.00;99.90
7360;DHT22;3720;48.274;7.796;2024-03-06T03:19:19;7.00;99.90
7360;DHT22;3720;48.274;7.796;2024-03-06T03:21:52;7.00;99.90
7360;DHT22;3720;48.274;7.796;2024-03-06T03:24:24;7.10;99.90
7360;DHT22;3720;48.274;7.796;2024-03-06T03:26:57;7.00;99.90
7360;DHT22;3720;48.274;7.796;2024-03-06T03:29:28;7.00;99.90
7360;DHT22;3720;48.274;7.796;2024-03-06T03:32:01;7.00;99.90
7360;DHT22;3720;48.274;7.796;2024-03-06T03:34:34;7.00;99.90
7360;DHT22;3720;48.274;7.796;2024-03-06T03:37:07;6.90;99.90
7360;DHT22;3720;48.274;7.796;2024-03-06T03:39:39;6.90;99.90
7360;DHT22;3720;48.274;7.796;2024-03-06T03:42:12;6.90;99.90
7360;DHT22;3720;48.274;7.796;2024-03-06T03:44:44;6.80;99.90
7360;DHT22;3720;48.274;7.796;2024-03-06T03:47:16;6.80;99.90
7360;DHT22;3720;48.274;7.796;2024-03-06T03:49:48;6.80;99.90
7360;DHT22;3720;48.274;7.796;2024-03-06T03:52:21;6.80;99.90
7360;DHT22;3720;48.274;7.796;2024-03-06T03:54:53;6.80;99.90
7360;DHT22;3720;48.274;7.796;2024-03-06T03:57:24;6.80;99.90
7360;DHT22;3720;48.274;7.796;2024-03-06T03:59:56;6.80;99.90
7360;DHT22;3720;48.274;7.796;2024-03-06T04:02:28;6.80;99.90
7360;DHT22;3720;48.274;7.796;2024-03-06T04:05:00;6.80;99.90
7360;DHT22;3720;48.274;7.796;2024-03-06T04:07:33;6.80;99.90
7360;DHT22;3720;48.274;7.796;2024-03-06T04:10:06;6.90;99.90
7360;DHT22;3720;48.274;7.796;2024-03-06T04:12:40;6.90;99.90
7360;DHT22;3720;48.274;7.796;2024-03-06T04:15:12;6.80;99.90
7360;DHT22;3720;48.274;7.796;2024-03-06T04:17:44;6.80;99.90
7360;DHT22;3720;48.274;7.796;2024-03-06T04:20:16;6.80;99.90
7360;DHT22;3720;48.274;7.796;2024-03-06T04:22:49;6.80;99.90
7360;DHT22;3720;48.274;7.796;2024-03-06T04:25:22;6.80;99.90
7360;DHT22;3720;48.274;7.796;2024-03-06T04:27:54;6.80;99.90
7360;DHT22;3720;48.274;7.796;2024-03-06T04:30:26;6.90;99.90
7360;DHT22;3720;48.274;7.796;2024-03-06T04:32:57;6.80;99.90
7360;DHT22;3720;48.274;7.796;2024-03-06T04:35:29;6.90;99.90
7360;DHT22;3720;48.274;7.796;2024-03-06T04:38:03;6.80;99.90
7360;DHT22;3720;48.274;7.796;2024-03-06T04:40:36;6.80;99.90
7360;DHT22;3720;48.274;7.796;2024-03-06T04:43:08;6.80;99.90
7360;DHT22;3720;48.274;7.796;2024-03-06T04:45:40;6.80;99.90
7360;DHT22;3720;48.274;7.796;2024-03-06T04:48:12;6.90;99.90
7360;DHT22;3720;48.274;7.796;2024-03-06T04:50:43;6.90;99.90
7360;DHT22;3720;48.274;7.796;2024-03-06T04:53:17;6.80;99.90
7360;DHT22;3720;48.274;7.796;2024-03-06T04:55:50;6.80;99.90
7360;DHT22;3720;48.274;7.796;2024-03-06T04:58:23;6.80;99.90
7360;DHT22;3720;48.274;7.796;2024-03-06T05:00:54;6.90;99.90
7360;DHT22;3720;48.274;7.796;2024-03-06T05:03:26;6.90;99.90
7360;DHT22;3720;48.274;7.796;2024-03-06T05:05:58;6.90;99.90
7360;DHT22;3720;48.274;7.796;2024-03-06T05:08:31;6.90;99.90
7360;DHT22;3720;48.274;7.796;2024-03-06T05:11:04;6.90;99.90
7360;DHT22;3720;48.274;7.796;2024-03-06T05:13:36;6.90;99.90
7360;DHT22;3720;48.274;7.796;2024-03-06T05:16:08;6.80;99.90
7360;DHT22;3720;48.274;7.796;2024-03-06T05:18:40;6.80;99.90
7360;DHT22;3720;48.274;7.796;2024-03-06T05:21:12;6.90;99.90
7360;DHT22;3720;48.274;7.796;2024-03-06T05:23:45;6.80;99.90
7360;DHT22;3720;48.274;7.796;2024-03-06T05:26:17;6.80;99.90
7360;DHT22;3720;48.274;7.796;2024-03-06T05:28:49;6.90;99.90
7360;DHT22;3720;48.274;7.796;2024-03-06T05:31:21;6.90;99.90
7360;DHT22;3720;48.274;7.796;2024-03-06T05:33:54;6.80;99.90
7360;DHT22;3720;48.274;7.796;2024-03-06T05:36:25;6.90;99.90
7360;DHT22;3720;48.274;7.796;2024-03-06T05:38:59;6.90;99.90
7360;DHT22;3720;48.274;7.796;2024-03-06T05:41:31;6.90;99.90
7360;DHT22;3720;48.274;7.796;2024-03-06T05:44:02;6.90;99.90
7360;DHT22;3720;48.274;7.796;2024-03-06T05:46:34;6.80;99.90
7360;DHT22;3720;48.274;7.796;2024-03-06T05:49:06;6.90;99.90
7360;DHT22;3720;48.274;7.796;2024-03-06T05:51:38;6.90;99.90
7360;DHT22;3720;48.274;7.796;2024-03-06T05:54:11;6.90;99.90
7360;DHT22;3720;48.274;7.796;2024-03-06T05:56:43;6.90;99.90
7360;DHT22;3720;48.274;7.796;2024-03-06T05:59:15;6.90;99.90
7360;DHT22;3720;48.274;7.796;2024-03-06T06:01:47;6.90;99.90
7360;DHT22;3720;48.274;7.796;2024-03-06T06:04:19;7.00;99.90
7360;DHT22;3720;48.274;7.796;2024-03-06T06:06:52;7.00;99.90
7360;DHT22;3720;48.274;7.796;2024-03-06T06:09:25;6.90;99.90
7360;DHT22;3720;48.274;7.796;2024-03-06T06:11:57;7.00;99.90
7360;DHT22;3720;48.274;7.796;2024-03-06T06:14:29;7.00;99.90
7360;DHT22;3720;48.274;7.796;2024-03-06T06:17:01;7.00;99.90
7360;DHT22;3720;48.274;7.796;2024-03-06T06:19:33;6.90;99.90
7360;DHT22;3720;48.274;7.796;2024-03-06T06:22:05;6.90;99.90
7360;DHT22;3720;48.274;7.796;2024-03-06T06:24:38;7.00;99.90
7360;DHT22;3720;48.274;7.796;2024-03-06T06:27:11;7.00;99.90
7360;DHT22;3720;48.274;7.796;2024-03-06T06:29:43;7.00;99.90
7360;DHT22;3720;48.274;7.796;2024-03-06T06:32:15;6.90;99.90
7360;DHT22;3720;48.274;7.796;2024-03-06T06:34:46;6.90;99.90
7360;DHT22;3720;48.274;7.796;2024-03-06T06:37:18;6.90;99.90
7360;DHT22;3720;48.274;7.796;2024-03-06T06:39:52;6.90;99.90
7360;DHT22;3720;48.274;7.796;2024-03-06T06:42:24;6.90;99.90
7360;DHT22;3720;48.274;7.796;2024-03-06T06:44:55;6.90;99.90
7360;DHT22;3720;48.274;7.796;2024-03-06T06:47:28;6.90;99.90
7360;DHT22;3720;48.274;7.796;2024-03-06T06:49:59;6.90;99.90
7360;DHT22;3720;48.274;7.796;2024-03-06T06:52:31;6.90;99.90
7360;DHT22;3720;48.274;7.796;2024-03-06T06:55:06;7.00;99.90
7360;DHT22;3720;48.274;7.796;2024-03-06T06:57:40;7.00;99.90
7360;DHT22;3720;48.274;7.796;2024-03-06T07:00:12;7.00;99.90
7360;DHT22;3720;48.274;7.796;2024-03-06T07:02:47;6.90;99.90
7360;DHT22;3720;48.274;7.796;2024-03-06T07:05:19;7.00;99.90
7360;DHT22;3720;48.274;7.796;2024-03-06T07:07:51;6.90;99.90
7360;DHT22;3720;48.274;7.796;2024-03-06T07:10:25;7.00;99.90
7360;DHT22;3720;48.274;7.796;2024-03-06T07:12:56;7.00;99.90
7360;DHT22;3720;48.274;7.796;2024-03-06T07:15:28;7.00;99.90
7360;DHT22;3720;48.274;7.796;2024-03-06T07:18:00;7.00;99.90
7360;DHT22;3720;48.274;7.796;2024-03-06T07:20:32;7.00;99.90
7360;DHT22;3720;48.274;7.796;2024-03-06T07:23:04;7.00;99.90
7360;DHT22;3720;48.274;7.796;2024-03-06T07:25:37;7.00;99.90
7360;DHT22;3720;48.274;7.796;2024-03-06T07:28:10;7.00;99.90
7360;DHT22;3720;48.274;7.796;2024-03-06T07:30:41;7.00;99.90
7360;DHT22;3720;48.274;7.796;2024-03-06T07:33:13;7.10;99.90
7360;DHT22;3720;48.274;7.796;2024-03-06T07:35:45;7.10;99.90
7360;DHT22;3720;48.274;7.796;2024-03-06T07:38:17;7.10;99.90
7360;DHT22;3720;48.274;7.796;2024-03-06T07:40:50;7.10;99.90
7360;DHT22;3720;48.274;7.796;2024-03-06T07:43:22;7.20;99.90
7360;DHT22;3720;48.274;7.796;2024-03-06T07:45:54;7.20;99.90
7360;DHT22;3720;48.274;7.796;2024-03-06T07:48:26;7.20;99.90
7360;DHT22;3720;48.274;7.796;2024-03-06T07:50:58;7.20;99.90
7360;DHT22;3720;48.274;7.796;2024-03-06T07:53:30;7.20;99.90
7360;DHT22;3720;48.274;7.796;2024-03-06T07:56:03;7.30;99.90
7360;DHT22;3720;48.274;7.796;2024-03-06T07:58:35;7.30;99.90
7360;DHT22;3720;48.274;7.796;2024-03-06T08:01:07;7.30;99.90
7360;DHT22;3720;48.274;7.796;2024-03-06T08:03:39;7.30;99.90
7360;DHT22;3720;48.274;7.796;2024-03-06T08:06:11;7.40;99.90
7360;DHT22;3720;48.274;7.796;2024-03-06T08:08:45;7.40;99.90
7360;DHT22;3720;48.274;7.796;2024-03-06T08:11:19;7.30;99.90
7360;DHT22;3720;48.274;7.796;2024-03-06T08:13:57;7.40;99.90
7360;DHT22;3720;48.274;7.796;2024-03-06T08:16:29;7.40;99.90
7360;DHT22;3720;48.274;7.796;2024-03-06T08:19:00;7.40;99.90
7360;DHT22;3720;48.274;7.796;2024-03-06T08:21:32;7.40;99.90
7360;DHT22;3720;48.274;7.796;2024-03-06T08:24:04;7.50;99.90
7360;DHT22;3720;48.274;7.796;2024-03-06T08:26:38;7.50;99.90
7360;DHT22;3720;48.274;7.796;2024-03-06T08:29:09;7.40;99.90
7360;DHT22;3720;48.274;7.796;2024-03-06T08:31:42;7.50;99.90
7360;DHT22;3720;48.274;7.796;2024-03-06T08:34:14;7.50;99.90
7360;DHT22;3720;48.274;7.796;2024-03-06T08:36:47;7.50;99.90
7360;DHT22;3720;48.274;7.796;2024-03-06T08:39:18;7.60;99.90
7360;DHT22;3720;48.274;7.796;2024-03-06T08:41:52;7.60;99.90
7360;DHT22;3720;48.274;7.796;2024-03-06T08:44:24;7.60;99.90
7360;DHT22;3720;48.274;7.796;2024-03-06T08:46:56;7.60;99.90
7360;DHT22;3720;48.274;7.796;2024-03-06T08:49:27;7.70;99.90
7360;DHT22;3720;48.274;7.796;2024-03-06T08:51:59;7.70;99.90
7360;DHT22;3720;48.274;7.796;2024-03-06T08:54:31;7.70;99.90
7360;DHT22;3720;48.274;7.796;2024-03-06T08:57:05;7.80;99.90
7360;DHT22;3720;48.274;7.796;2024-03-06T08:59:37;7.90;99.90
7360;DHT22;3720;48.274;7.796;2024-03-06T09:02:12;7.90;99.90
7360;DHT22;3720;48.274;7.796;2024-03-06T09:04:45;8.00;99.90
7360;DHT22;3720;48.274;7.796;2024-03-06T09:07:18;8.00;99.90
7360;DHT22;3720;48.274;7.796;2024-03-06T09:09:50;8.00;99.90
7360;DHT22;3720;48.274;7.796;2024-03-06T09:12:23;8.10;99.90
7360;DHT22;3720;48.274;7.796;2024-03-06T09:14:55;8.10;99.90
7360;DHT22;3720;48.274;7.796;2024-03-06T09:17:27;8.20;99.90
7360;DHT22;3720;48.274;7.796;2024-03-06T09:19:59;8.20;99.90
7360;DHT22;3720;48.274;7.796;2024-03-06T09:22:41;8.30;99.90
7360;DHT22;3720;48.274;7.796;2024-03-06T09:25:12;8.40;99.90
7360;DHT22;3720;48.274;7.796;2024-03-06T09:27:46;8.50;99.90
7360;DHT22;3720;48.274;7.796;2024-03-06T09:30:18;8.50;99.90
7360;DHT22;3720;48.274;7.796;2024-03-06T09:32:50;8.60;99.90
7360;DHT22;3720;48.274;7.796;2024-03-06T09:35:22;8.70;99.90
7360;DHT22;3720;48.274;7.796;2024-03-06T09:37:53;8.80;99.90
7360;DHT22;3720;48.274;7.796;2024-03-06T09:40:29;8.90;99.90
7360;DHT22;3720;48.274;7.796;2024-03-06T09:43:03;9.00;99.90
7360;DHT22;3720;48.274;7.796;2024-03-06T09:45:35;9.00;99.90
7360;DHT22;3720;48.274;7.796;2024-03-06T09:48:08;9.20;99.90
7360;DHT22;3720;48.274;7.796;2024-03-06T09:50:43;9.20;99.90
7360;DHT22;3720;48.274;7.796;2024-03-06T09:53:18;9.20;99.90
7360;DHT22;3720;48.274;7.796;2024-03-06T09:55:53;9.30;99.90
7360;DHT22;3720;48.274;7.796;2024-03-06T09:58:26;9.30;99.90
7360;DHT22;3720;48.274;7.796;2024-03-06T10:00:58;9.40;99.90
7360;DHT22;3720;48.274;7.796;2024-03-06T10:03:31;9.60;99.90
7360;DHT22;3720;48.274;7.796;2024-03-06T10:06:03;9.60;99.90
7360;DHT22;3720;48.274;7.796;2024-03-06T10:08:36;9.70;99.90
7360;DHT22;3720;48.274;7.796;2024-03-06T10:11:08;9.60;99.90
7360;DHT22;3720;48.274;7.796;2024-03-06T10:13:42;9.70;99.90
7360;DHT22;3720;48.274;7.796;2024-03-06T10:16:13;9.80;99.90
7360;DHT22;3720;48.274;7.796;2024-03-06T10:18:55;9.70;99.90
7360;DHT22;3720;48.274;7.796;2024-03-06T10:21:31;9.70;99.90
7360;DHT22;3720;48.274;7.796;2024-03-06T10:24:04;9.80;99.90
7360;DHT22;3720;48.274;7.796;2024-03-06T10:26:37;9.80;99.90
7360;DHT22;3720;48.274;7.796;2024-03-06T10:29:10;9.90;99.90
7360;DHT22;3720;48.274;7.796;2024-03-06T10:31:48;9.90;99.90
7360;DHT22;3720;48.274;7.796;2024-03-06T10:34:20;9.90;99.90
7360;DHT22;3720;48.274;7.796;2024-03-06T10:36:54;10.00;99.90
7360;DHT22;3720;48.274;7.796;2024-03-06T10:39:27;10.00;99.90
7360;DHT22;3720;48.274;7.796;2024-03-06T10:42:02;10.10;99.90
7360;DHT22;3720;48.274;7.796;2024-03-06T10:44:42;10.00;99.90
7360;DHT22;3720;48.274;7.796;2024-03-06T10:47:20;10.00;99.90
7360;DHT22;3720;48.274;7.796;2024-03-06T10:49:53;10.10;99.90
7360;DHT22;3720;48.274;7.796;2024-03-06T10:52:27;10.20;99.90
7360;DHT22;3720;48.274;7.796;2024-03-06T10:55:00;10.20;99.90
7360;DHT22;3720;48.274;7.796;2024-03-06T10:57:32;10.30;99.90
7360;DHT22;3720;48.274;7.796;2024-03-06T11:00:07;10.40;99.90
7360;DHT22;3720;48.274;7.796;2024-03-06T11:02:40;10.50;99.90
7360;DHT22;3720;48.274;7.796;2024-03-06T11:05:12;10.50;99.90
7360;DHT22;3720;48.274;7.796;2024-03-06T11:07:45;10.40;99.90
7360;DHT22;3720;48.274;7.796;2024-03-06T11:10:30;10.50;99.90
7360;DHT22;3720;48.274;7.796;2024-03-06T11:13:02;10.40;99.90
7360;DHT22;3720;48.274;7.796;2024-03-06T11:15:37;10.50;99.90
7360;DHT22;3720;48.274;7.796;2024-03-06T11:18:43;10.50;99.90
7360;DHT22;3720;48.274;7.796;2024-03-06T11:21:31;10.50;99.90
7360;DHT22;3720;48.274;7.796;2024-03-06T11:24:14;10.60;99.90
7360;DHT22;3720;48.274;7.796;2024-03-06T11:26:47;10.70;99.90
7360;DHT22;3720;48.274;7.796;2024-03-06T11:29:19;10.90;99.90
7360;DHT22;3720;48.274;7.796;2024-03-06T11:32:07;11.10;99.90
7360;DHT22;3720;48.274;7.796;2024-03-06T11:34:40;11.40;99.90
7360;DHT22;3720;48.274;7.796;2024-03-06T11:37:11;11.60;99.90
7360;DHT22;3720;48.274;7.796;2024-03-06T11:39:43;11.80;99.90
7360;DHT22;3720;48.274;7.796;2024-03-06T11:42:16;11.90;99.90
7360;DHT22;3720;48.274;7.796;2024-03-06T11:44:54;12.00;99.90
7360;DHT22;3720;48.274;7.796;2024-03-06T11:47:31;12.10;99.90
7360;DHT22;3720;48.274;7.796;2024-03-06T11:50:04;12.10;99.90
7360;DHT22;3720;48.274;7.796;2024-03-06T11:52:41;12.20;99.90
7360;DHT22;3720;48.274;7.796;2024-03-06T11:55:13;12.30;99.90
7360;DHT22;3720;48.274;7.796;2024-03-06T11:57:46;12.40;99.90
7360;DHT22;3720;48.274;7.796;2024-03-06T12:00:20;12.40;99.90
7360;DHT22;3720;48.274;7.796;2024-03-06T12:02:54;12.50;99.90
7360;DHT22;3720;48.274;7.796;2024-03-06T12:05:25;12.70;99.90
7360;DHT22;3720;48.274;7.796;2024-03-06T12:07:59;12.90;99.90
7360;DHT22;3720;48.274;7.796;2024-03-06T12:10:30;13.10;99.90
7360;DHT22;3720;48.274;7.796;2024-03-06T12:13:02;13.20;99.90
7360;DHT22;3720;48.274;7.796;2024-03-06T12:15:34;13.20;99.90
7360;DHT22;3720;48.274;7.796;2024-03-06T12:18:08;13.10;99.90
7360;DHT22;3720;48.274;7.796;2024-03-06T12:20:42;13.00;99.90
7360;DHT22;3720;48.274;7.796;2024-03-06T12:23:19;12.90;99.90
7360;DHT22;3720;48.274;7.796;2024-03-06T12:26:03;12.90;99.90
7360;DHT22;3720;48.274;7.796;2024-03-06T12:28:35;12.90;99.90
7360;DHT22;3720;48.274;7.796;2024-03-06T12:31:07;12.90;99.90
7360;DHT22;3720;48.274;7.796;2024-03-06T12:33:41;12.90;99.90
7360;DHT22;3720;48.274;7.796;2024-03-06T12:36:13;13.00;99.90
7360;DHT22;3720;48.274;7.796;2024-03-06T12:38:53;12.90;99.90
7360;DHT22;3720;48.274;7.796;2024-03-06T12:41:25;12.90;99.90
7360;DHT22;3720;48.274;7.796;2024-03-06T12:43:58;12.80;99.90
7360;DHT22;3720;48.274;7.796;2024-03-06T12:46:30;12.70;99.90
7360;DHT22;3720;48.274;7.796;2024-03-06T12:49:03;12.70;99.90
7360;DHT22;3720;48.274;7.796;2024-03-06T12:51:35;12.60;99.90
7360;DHT22;3720;48.274;7.796;2024-03-06T12:54:07;12.50;99.90
7360;DHT22;3720;48.274;7.796;2024-03-06T12:56:40;12.40;99.90
7360;DHT22;3720;48.274;7.796;2024-03-06T12:59:12;12.30;99.90
7360;DHT22;3720;48.274;7.796;2024-03-06T13:01:44;12.10;99.90
7360;DHT22;3720;48.274;7.796;2024-03-06T13:04:18;12.00;99.90
7360;DHT22;3720;48.274;7.796;2024-03-06T13:06:50;11.90;99.90
7360;DHT22;3720;48.274;7.796;2024-03-06T13:09:22;11.90;99.90
7360;DHT22;3720;48.274;7.796;2024-03-06T13:11:55;11.80;99.90
7360;DHT22;3720;48.274;7.796;2024-03-06T13:14:26;11.70;99.90
7360;DHT22;3720;48.274;7.796;2024-03-06T13:16:59;11.70;99.90
7360;DHT22;3720;48.274;7.796;2024-03-06T13:19:32;11.60;99.90
7360;DHT22;3720;48.274;7.796;2024-03-06T13:22:04;11.70;99.90
7360;DHT22;3720;48.274;7.796;2024-03-06T13:24:37;11.50;99.90
7360;DHT22;3720;48.274;7.796;2024-03-06T13:27:09;11.50;99.90
7360;DHT22;3720;48.274;7.796;2024-03-06T13:29:41;11.50;99.90
7360;DHT22;3720;48.274;7.796;2024-03-06T13:32:13;11.50;99.90
7360;DHT22;3720;48.274;7.796;2024-03-06T13:34:46;11.50;99.90
7360;DHT22;3720;48.274;7.796;2024-03-06T13:37:18;11.50;99.90
7360;DHT22;3720;48.274;7.796;2024-03-06T13:39:53;11.50;99.90
7360;DHT22;3720;48.274;7.796;2024-03-06T13:42:28;11.50;99.90
7360;DHT22;3720;48.274;7.796;2024-03-06T13:45:00;11.60;99.90
7360;DHT22;3720;48.274;7.796;2024-03-06T13:47:32;11.60;99.90
7360;DHT22;3720;48.274;7.796;2024-03-06T13:50:07;11.70;99.90
7360;DHT22;3720;48.274;7.796;2024-03-06T13:52:40;11.80;99.90
7360;DHT22;3720;48.274;7.796;2024-03-06T13:55:12;11.80;99.90
7360;DHT22;3720;48.274;7.796;2024-03-06T13:57:44;11.80;99.90
7360;DHT22;3720;48.274;7.796;2024-03-06T14:00:17;11.80;99.90
7360;DHT22;3720;48.274;7.796;2024-03-06T14:02:49;11.70;99.90
7360;DHT22;3720;48.274;7.796;2024-03-06T14:05:22;11.70;99.90
7360;DHT22;3720;48.274;7.796;2024-03-06T14:07:56;11.50;99.90
7360;DHT22;3720;48.274;7.796;2024-03-06T14:10:29;11.50;99.90
7360;DHT22;3720;48.274;7.796;2024-03-06T14:13:03;11.50;99.90
7360;DHT22;3720;48.274;7.796;2024-03-06T14:15:37;11.40;99.90
7360;DHT22;3720;48.274;7.796;2024-03-06T14:18:09;11.40;99.90
7360;DHT22;3720;48.274;7.796;2024-03-06T14:20:42;11.40;99.90
7360;DHT22;3720;48.274;7.796;2024-03-06T14:23:14;11.30;99.90
7360;DHT22;3720;48.274;7.796;2024-03-06T14:25:45;11.30;99.90
7360;DHT22;3720;48.274;7.796;2024-03-06T14:28:17;11.30;99.90
7360;DHT22;3720;48.274;7.796;2024-03-06T14:30:49;11.30;99.90
7360;DHT22;3720;48.274;7.796;2024-03-06T14:33:21;11.30;99.90
7360;DHT22;3720;48.274;7.796;2024-03-06T14:35:54;11.30;99.90
7360;DHT22;3720;48.274;7.796;2024-03-06T14:38:26;11.20;99.90
7360;DHT22;3720;48.274;7.796;2024-03-06T14:40:58;11.20;99.90
7360;DHT22;3720;48.274;7.796;2024-03-06T14:43:29;11.20;99.90
7360;DHT22;3720;48.274;7.796;2024-03-06T14:46:01;11.20;99.90
7360;DHT22;3720;48.274;7.796;2024-03-06T14:48:33;11.30;99.90
7360;DHT22;3720;48.274;7.796;2024-03-06T14:51:07;11.20;99.90
7360;DHT22;3720;48.274;7.796;2024-03-06T14:53:39;11.20;99.90
7360;DHT22;3720;48.274;7.796;2024-03-06T14:56:11;11.20;99.90
7360;DHT22;3720;48.274;7.796;2024-03-06T14:58:43;11.20;99.90
7360;DHT22;3720;48.274;7.796;2024-03-06T15:01:14;11.10;99.90
7360;DHT22;3720;48.274;7.796;2024-03-06T15:03:46;11.10;99.90
7360;DHT22;3720;48.274;7.796;2024-03-06T15:06:20;11.00;99.90
7360;DHT22;3720;48.274;7.796;2024-03-06T15:08:51;11.00;99.90
7360;DHT22;3720;48.274;7.796;2024-03-06T15:11:23;11.00;99.90
7360;DHT22;3720;48.274;7.796;2024-03-06T15:13:55;10.90;99.90
7360;DHT22;3720;48.274;7.796;2024-03-06T15:16:27;10.90;99.90
7360;DHT22;3720;48.274;7.796;2024-03-06T15:18:59;10.80;99.90
7360;DHT22;3720;48.274;7.796;2024-03-06T15:21:35;10.80;99.90
7360;DHT22;3720;48.274;7.796;2024-03-06T15:24:07;10.70;99.90
7360;DHT22;3720;48.274;7.796;2024-03-06T15:26:39;10.70;99.90
7360;DHT22;3720;48.274;7.796;2024-03-06T15:29:11;10.60;99.90
7360;DHT22;3720;48.274;7.796;2024-03-06T15:31:43;10.60;99.90
7360;DHT22;3720;48.274;7.796;2024-03-06T15:34:15;10.60;99.90
7360;DHT22;3720;48.274;7.796;2024-03-06T15:36:49;10.50;99.90
7360;DHT22;3720;48.274;7.796;2024-03-06T15:39:21;10.50;99.90
7360;DHT22;3720;48.274;7.796;2024-03-06T15:41:52;10.40;99.90
7360;DHT22;3720;48.274;7.796;2024-03-06T15:44:24;10.40;99.90
7360;DHT22;3720;48.274;7.796;2024-03-06T15:46:58;10.30;99.90
7360;DHT22;3720;48.274;7.796;2024-03-06T15:49:30;10.30;99.90
7360;DHT22;3720;48.274;7.796;2024-03-06T15:52:04;10.20;99.90
7360;DHT22;3720;48.274;7.796;2024-03-06T15:54:35;10.20;99.90
7360;DHT22;3720;48.274;7.796;2024-03-06T15:57:08;10.30;99.90
7360;DHT22;3720;48.274;7.796;2024-03-06T15:59:40;10.20;99.90
7360;DHT22;3720;48.274;7.796;2024-03-06T16:02:11;10.00;99.90
7360;DHT22;3720;48.274;7.796;2024-03-06T16:04:43;10.00;99.90
7360;DHT22;3720;48.274;7.796;2024-03-06T16:07:17;9.90;99.90
7360;DHT22;3720;48.274;7.796;2024-03-06T16:09:49;9.90;99.90
7360;DHT22;3720;48.274;7.796;2024-03-06T16:12:22;9.90;99.90
7360;DHT22;3720;48.274;7.796;2024-03-06T16:14:54;9.80;99.90
7360;DHT22;3720;48.274;7.796;2024-03-06T16:17:26;9.70;99.90
7360;DHT22;3720;48.274;7.796;2024-03-06T16:19:58;9.60;99.90
7360;DHT22;3720;48.274;7.796;2024-03-06T16:22:31;9.60;99.90
7360;DHT22;3720;48.274;7.796;2024-03-06T16:25:04;9.50;99.90
7360;DHT22;3720;48.274;7.796;2024-03-06T16:27:36;9.50;99.90
7360;DHT22;3720;48.274;7.796;2024-03-06T16:30:09;9.40;99.90
7360;DHT22;3720;48.274;7.796;2024-03-06T16:32:41;9.40;99.90
7360;DHT22;3720;48.274;7.796;2024-03-06T16:35:13;9.30;99.90
7360;DHT22;3720;48.274;7.796;2024-03-06T16:37:46;9.30;99.90
7360;DHT22;3720;48.274;7.796;2024-03-06T16:40:19;9.30;99.90
7360;DHT22;3720;48.274;7.796;2024-03-06T16:42:51;9.20;99.90
7360;DHT22;3720;48.274;7.796;2024-03-06T16:45:23;9.20;99.90
7360;DHT22;3720;48.274;7.796;2024-03-06T16:47:55;9.10;99.90